Time;durP1;ratioP1;P1;durP2;ratioP2;P2;SDS_P1;SDS_P2;PMS_P1;PMS_P2;Temp;Humidity;BMP_temperature;BMP_pressure;BME280_temperature;BME280_humidity;BME280_pressure;Samples;Min_cycle;Max_cycle;Signal;HPM_P1;HPM_P2
2024/01/19 00:01:13;;;;;;;185.50;50.80;;;;;;;;;;4995325;28;20440;-42
2024/01/19 00:03:40;;;;;;;186.52;51.50;;;;;;;;;;4995206;28;20415;-43
2024/01/19 00:06:06;;;;;;;184.93;50.70;;;;;;;;;;4995833;28;20661;-42
2024/01/19 00:08:32;;;;;;;184.68;50.70;;;;;;;;;;4996007;28;20227;-43
2024/01/19 00:10:58;;;;;;;183.57;50.88;;;;;;;;;;4995082;28;20205;-43
2024/01/19 00:13:23;;;;;;;184.43;50.93;;;;;;;;;;4995522;28;20176;-43
2024/01/19 00:15:52;;;;;;;184.37;52.17;;;;;;;;;;4995521;28;20404;-43
2024/01/19 00:18:18;;;;;;;183.32;51.28;;;;;;;;;;4995358;28;20500;-43
2024/01/19 00:20:44;;;;;;;182.70;50.80;;;;;;;;;;4995141;28;20320;-43
2024/01/19 00:23:10;;;;;;;181.57;50.43;;;;;;;;;;4995782;28;20419;-43
2024/01/19 00:25:37;;;;;;;181.77;50.40;;;;;;;;;;4995077;28;20405;-43
2024/01/19 00:28:03;;;;;;;181.93;51.25;;;;;;;;;;4995094;28;20460;-43
2024/01/19 00:30:29;;;;;;;182.52;50.75;;;;;;;;;;4994863;28;20219;-43
2024/01/19 00:32:55;;;;;;;181.80;50.83;;;;;;;;;;4995212;28;20188;-43
2024/01/19 00:35:21;;;;;;;181.15;50.40;;;;;;;;;;4994970;28;20405;-43
2024/01/19 00:37:49;;;;;;;182.00;50.97;;;;;;;;;;4994743;28;20680;-43
2024/01/19 00:40:15;;;;;;;183.70;53.28;;;;;;;;;;4995049;28;20234;-43
2024/01/19 00:42:42;;;;;;;178.85;49.47;;;;;;;;;;4994722;28;20199;-42
2024/01/19 00:45:09;;;;;;;183.15;52.38;;;;;;;;;;4994728;28;20610;-43
2024/01/19 00:47:35;;;;;;;180.07;50.75;;;;;;;;;;4994987;28;20205;-42
2024/01/19 00:50:21;;;;;;;184.48;51.35;;;;;;;;;;4994652;28;20213;-42
2024/01/19 00:52:47;;;;;;;182.77;50.10;;;;;;;;;;4994438;28;20185;-43
2024/01/19 00:55:13;;;;;;;181.27;50.00;;;;;;;;;;4994988;28;20255;-43
2024/01/19 00:57:39;;;;;;;181.57;51.07;;;;;;;;;;4994611;28;20730;-42
2024/01/19 01:00:05;;;;;;;182.77;51.97;;;;;;;;;;4994353;28;20439;-42
2024/01/19 01:02:31;;;;;;;176.32;50.35;;;;;;;;;;4994194;28;20789;-42
2024/01/19 01:04:57;;;;;;;177.05;50.15;;;;;;;;;;4994496;28;20187;-42
2024/01/19 01:07:24;;;;;;;177.87;51.50;;;;;;;;;;4994450;28;20204;-43
2024/01/19 01:09:50;;;;;;;177.77;49.63;;;;;;;;;;4994171;28;20503;-42
2024/01/19 01:12:16;;;;;;;178.93;51.42;;;;;;;;;;4993786;28;20193;-42
2024/01/19 01:14:42;;;;;;;178.63;51.58;;;;;;;;;;4994183;28;20168;-42
2024/01/19 01:17:09;;;;;;;176.82;50.63;;;;;;;;;;4994068;28;20676;-42
2024/01/19 01:19:35;;;;;;;183.30;51.15;;;;;;;;;;4993939;28;20700;-42
2024/01/19 01:22:02;;;;;;;180.37;50.23;;;;;;;;;;4993355;28;20285;-42
2024/01/19 01:24:28;;;;;;;179.98;51.08;;;;;;;;;;4994190;28;20427;-43
2024/01/19 01:26:53;;;;;;;179.60;51.80;;;;;;;;;;4993105;28;20602;-42
2024/01/19 01:29:20;;;;;;;178.47;50.90;;;;;;;;;;4993390;28;20426;-42
2024/01/19 01:31:46;;;;;;;179.38;51.85;;;;;;;;;;4993265;28;20970;-42
2024/01/19 01:34:12;;;;;;;178.67;51.37;;;;;;;;;;4993284;28;20181;-42
2024/01/19 01:36:38;;;;;;;177.03;50.03;;;;;;;;;;4992733;28;20408;-42
2024/01/19 01:39:04;;;;;;;179.63;51.53;;;;;;;;;;4993317;28;20915;-42
2024/01/19 01:41:30;;;;;;;177.15;50.53;;;;;;;;;;4992954;28;20271;-43
2024/01/19 01:43:56;;;;;;;179.30;51.43;;;;;;;;;;4993206;28;20288;-42
2024/01/19 01:46:22;;;;;;;177.98;49.97;;;;;;;;;;4993031;28;20463;-42
2024/01/19 01:48:48;;;;;;;181.73;51.07;;;;;;;;;;4993198;28;20188;-42
2024/01/19 01:51:14;;;;;;;180.90;50.67;;;;;;;;;;4992861;28;20428;-42
2024/01/19 01:53:40;;;;;;;182.55;52.05;;;;;;;;;;4992991;28;20181;-43
2024/01/19 01:56:06;;;;;;;181.93;51.47;;;;;;;;;;4993606;28;20188;-44
2024/01/19 01:58:32;;;;;;;182.30;51.97;;;;;;;;;;4992919;28;20172;-43
2024/01/19 02:00:58;;;;;;;184.00;53.13;;;;;;;;;;4992685;28;20188;-42
2024/01/19 02:03:24;;;;;;;180.75;51.92;;;;;;;;;;4992330;28;20603;-43
2024/01/19 02:05:50;;;;;;;183.32;53.53;;;;;;;;;;4992658;28;20248;-42
2024/01/19 02:08:16;;;;;;;181.57;53.00;;;;;;;;;;4991937;28;20264;-42
2024/01/19 02:10:42;;;;;;;181.40;51.70;;;;;;;;;;4992594;28;20490;-42
2024/01/19 02:13:08;;;;;;;181.27;51.97;;;;;;;;;;4992563;28;20435;-42
2024/01/19 02:15:37;;;;;;;181.77;51.63;;;;;;;;;;4993189;28;20892;-42
2024/01/19 02:18:03;;;;;;;179.20;50.38;;;;;;;;;;4992782;28;20161;-42
2024/01/19 02:20:29;;;;;;;181.38;51.80;;;;;;;;;;4992576;28;20248;-42
2024/01/19 02:22:56;;;;;;;180.10;50.77;;;;;;;;;;4992844;28;20259;-43
2024/01/19 02:25:22;;;;;;;180.27;51.25;;;;;;;;;;4992889;28;20400;-42
2024/01/19 02:27:48;;;;;;;179.45;50.90;;;;;;;;;;4990329;28;20217;-42
2024/01/19 02:30:14;;;;;;;191.10;59.28;;;;;;;;;;4992129;28;20165;-42
2024/01/19 02:32:40;;;;;;;181.90;51.55;;;;;;;;;;4992539;28;20650;-43
2024/01/19 02:35:06;;;;;;;179.55;50.30;;;;;;;;;;4992389;28;20267;-42
2024/01/19 02:37:33;;;;;;;182.07;51.15;;;;;;;;;;4992665;28;20177;-43
2024/01/19 02:40:00;;;;;;;181.70;51.45;;;;;;;;;;4992453;28;20185;-42
2024/01/19 02:42:26;;;;;;;180.80;50.88;;;;;;;;;;4992203;28;20287;-42
2024/01/19 02:44:52;;;;;;;182.20;51.17;;;;;;;;;;4992525;28;20308;-42
2024/01/19 02:47:18;;;;;;;181.57;49.80;;;;;;;;;;4992195;28;20471;-43
2024/01/19 02:49:44;;;;;;;181.03;51.00;;;;;;;;;;4996245;28;20407;-43
2024/01/19 02:52:10;;;;;;;180.60;51.03;;;;;;;;;;4996291;28;20430;-43
2024/01/19 02:54:36;;;;;;;181.27;50.63;;;;;;;;;;4996474;28;20439;-42
2024/01/19 02:57:01;;;;;;;182.70;51.40;;;;;;;;;;4996301;28;20423;-43
2024/01/19 02:59:29;;;;;;;182.97;51.73;;;;;;;;;;4996321;28;20415;-42
2024/01/19 03:01:55;;;;;;;183.63;51.95;;;;;;;;;;4995838;28;20438;-43
2024/01/19 03:04:20;;;;;;;182.43;51.60;;;;;;;;;;4996200;28;20177;-42
2024/01/19 03:06:46;;;;;;;181.37;51.97;;;;;;;;;;4996244;28;20456;-42
2024/01/19 03:09:12;;;;;;;185.23;53.03;;;;;;;;;;4996226;28;20404;-43
2024/01/19 03:11:40;;;;;;;182.20;51.33;;;;;;;;;;4995849;28;20428;-42
2024/01/19 03:14:06;;;;;;;181.50;51.28;;;;;;;;;;4995881;28;20935;-42
2024/01/19 03:16:31;;;;;;;178.83;49.27;;;;;;;;;;4996536;28;20177;-42
2024/01/19 03:19:00;;;;;;;181.98;49.95;;;;;;;;;;4996049;28;20915;-43
2024/01/19 03:21:27;;;;;;;183.07;50.90;;;;;;;;;;4995747;28;20216;-43
2024/01/19 03:27:04;;;;;;;180.90;50.75;;;;;;;;;;4989774;28;20723;-43
2024/01/19 03:29:30;;;;;;;179.93;50.00;;;;;;;;;;4995644;28;20188;-42
2024/01/19 03:31:56;;;;;;;184.27;51.55;;;;;;;;;;4995591;28;20744;-42
2024/01/19 03:34:22;;;;;;;181.07;49.27;;;;;;;;;;4996005;28;20468;-44
2024/01/19 03:36:48;;;;;;;182.97;50.23;;;;;;;;;;4995706;28;20427;-43
2024/01/19 03:39:14;;;;;;;184.37;50.80;;;;;;;;;;4995744;28;20417;-43
2024/01/19 03:41:40;;;;;;;182.45;49.13;;;;;;;;;;4995179;28;20574;-42
2024/01/19 03:44:06;;;;;;;180.37;49.07;;;;;;;;;;4995537;28;20242;-42
2024/01/19 03:46:31;;;;;;;183.20;50.07;;;;;;;;;;4995473;28;20467;-43
2024/01/19 03:48:57;;;;;;;183.77;49.87;;;;;;;;;;4995723;28;20412;-43
2024/01/19 03:51:23;;;;;;;182.50;49.50;;;;;;;;;;4995130;28;20839;-42
2024/01/19 03:53:49;;;;;;;182.67;48.90;;;;;;;;;;4995735;28;20439;-43
2024/01/19 03:56:15;;;;;;;183.87;50.27;;;;;;;;;;4995310;28;20519;-43
2024/01/19 03:58:41;;;;;;;182.85;49.10;;;;;;;;;;4995302;28;20468;-42
2024/01/19 04:01:08;;;;;;;182.67;49.33;;;;;;;;;;4994079;28;20209;-43
2024/01/19 04:03:34;;;;;;;183.82;49.00;;;;;;;;;;4995306;28;20950;-43
2024/01/19 04:06:00;;;;;;;181.17;48.30;;;;;;;;;;4995344;28;20181;-43
2024/01/19 04:08:27;;;;;;;181.87;48.43;;;;;;;;;;4995356;28;20584;-43
2024/01/19 04:10:53;;;;;;;183.90;49.00;;;;;;;;;;4995090;28;20429;-43
2024/01/19 04:13:19;;;;;;;183.57;48.07;;;;;;;;;;4995158;28;20177;-42
2024/01/19 04:15:45;;;;;;;183.47;48.67;;;;;;;;;;4995342;28;20420;-43
2024/01/19 04:18:11;;;;;;;184.10;48.93;;;;;;;;;;4995438;28;20502;-43
2024/01/19 04:20:37;;;;;;;185.52;49.00;;;;;;;;;;4995121;28;20498;-42
2024/01/19 04:23:03;;;;;;;185.10;49.17;;;;;;;;;;4994935;28;20189;-42
2024/01/19 04:25:29;;;;;;;185.75;48.72;;;;;;;;;;4994094;28;20275;-42
2024/01/19 04:27:55;;;;;;;185.90;50.05;;;;;;;;;;4993540;28;20570;-42
2024/01/19 04:30:21;;;;;;;189.50;51.70;;;;;;;;;;4993952;28;20169;-42
2024/01/19 04:32:47;;;;;;;187.70;49.20;;;;;;;;;;4994042;28;20192;-42
2024/01/19 04:35:13;;;;;;;184.13;47.60;;;;;;;;;;4994058;28;20410;-42
2024/01/19 04:37:39;;;;;;;187.00;48.72;;;;;;;;;;4993642;28;20413;-42
2024/01/19 04:40:05;;;;;;;187.52;49.30;;;;;;;;;;4993781;28;20171;-41
2024/01/19 04:42:31;;;;;;;186.55;48.75;;;;;;;;;;4993793;28;20531;-42
2024/01/19 04:44:57;;;;;;;187.07;48.60;;;;;;;;;;4993841;28;20204;-42
2024/01/19 04:47:23;;;;;;;187.07;48.47;;;;;;;;;;4993760;28;20455;-43
2024/01/19 04:49:49;;;;;;;186.57;47.90;;;;;;;;;;4993831;28;20196;-42
2024/01/19 04:52:15;;;;;;;85.28;55.78;;;;;;;;;;4993547;28;20408;-42
2024/01/19 04:54:41;;;;;;;150.30;48.90;;;;;;;;;;4993793;28;20587;-42
2024/01/19 04:57:07;;;;;;;178.53;48.77;;;;;;;;;;4993730;28;20362;-43
2024/01/19 04:59:33;;;;;;;124.72;36.50;;;;;;;;;;4993586;28;20432;-42
2024/01/19 05:01:59;;;;;;;174.67;50.57;;;;;;;;;;4993213;28;20263;-42
2024/01/19 05:04:25;;;;;;;188.37;48.60;;;;;;;;;;4993797;28;20408;-43
2024/01/19 05:06:51;;;;;;;189.23;48.70;;;;;;;;;;4993451;28;20960;-42
2024/01/19 05:09:17;;;;;;;190.80;49.63;;;;;;;;;;4993471;28;20165;-42
2024/01/19 05:11:43;;;;;;;190.37;49.40;;;;;;;;;;4993082;28;20308;-42
2024/01/19 05:14:09;;;;;;;189.65;50.38;;;;;;;;;;4993736;28;20397;-42
2024/01/19 05:16:35;;;;;;;191.48;49.50;;;;;;;;;;4993330;28;20199;-42
2024/01/19 05:19:01;;;;;;;188.97;49.57;;;;;;;;;;4993216;28;20275;-43
2024/01/19 05:21:27;;;;;;;188.10;50.00;;;;;;;;;;4992965;28;20507;-42
2024/01/19 05:23:53;;;;;;;188.77;49.60;;;;;;;;;;4993136;28;20404;-42
2024/01/19 05:26:19;;;;;;;190.68;50.42;;;;;;;;;;4993139;28;20955;-42
2024/01/19 05:28:45;;;;;;;190.57;50.67;;;;;;;;;;4993077;28;20219;-42
2024/01/19 05:31:11;;;;;;;188.43;49.10;;;;;;;;;;4992807;28;20491;-42
2024/01/19 05:33:37;;;;;;;188.17;49.00;;;;;;;;;;4993022;28;20404;-42
2024/01/19 05:36:04;;;;;;;190.10;49.88;;;;;;;;;;4992999;28;21011;-42
2024/01/19 05:38:30;;;;;;;189.95;49.65;;;;;;;;;;4992568;28;20251;-41
2024/01/19 05:40:59;;;;;;;188.80;49.20;;;;;;;;;;4992519;28;20284;-42
2024/01/19 05:43:25;;;;;;;190.25;51.13;;;;;;;;;;4992734;28;20900;-42
2024/01/19 05:45:51;;;;;;;190.43;50.60;;;;;;;;;;4992919;28;20169;-42
2024/01/19 05:48:17;;;;;;;189.13;50.90;;;;;;;;;;4992784;28;20463;-42
2024/01/19 05:50:42;;;;;;;190.33;48.90;;;;;;;;;;4992514;28;20419;-42
2024/01/19 05:53:08;;;;;;;192.10;50.30;;;;;;;;;;4992687;28;20405;-42
2024/01/19 05:55:34;;;;;;;192.93;50.47;;;;;;;;;;4992571;28;20401;-42
2024/01/19 05:58:03;;;;;;;195.00;50.75;;;;;;;;;;4992636;28;20173;-42
2024/01/19 06:00:29;;;;;;;192.15;49.58;;;;;;;;;;4992360;28;20176;-42
2024/01/19 06:02:55;;;;;;;187.68;48.83;;;;;;;;;;4992571;28;20165;-42
2024/01/19 06:05:21;;;;;;;180.63;47.83;;;;;;;;;;4992716;28;20268;-42
2024/01/19 06:07:47;;;;;;;190.20;49.47;;;;;;;;;;4992477;28;20463;-43
2024/01/19 06:10:13;;;;;;;191.80;50.80;;;;;;;;;;4992119;28;20404;-42
2024/01/19 06:12:39;;;;;;;189.35;48.80;;;;;;;;;;4992411;28;20420;-42
2024/01/19 06:15:05;;;;;;;190.13;49.40;;;;;;;;;;4992475;28;20169;-41
2024/01/19 06:17:31;;;;;;;190.18;49.00;;;;;;;;;;4992594;28;20304;-42
2024/01/19 06:19:57;;;;;;;190.27;49.77;;;;;;;;;;4992439;28;20628;-41
2024/01/19 06:22:24;;;;;;;193.30;50.25;;;;;;;;;;4992835;28;20424;-41
2024/01/19 06:24:54;;;;;;;196.02;51.38;;;;;;;;;;4998803;28;20659;-41
2024/01/19 06:27:20;;;;;;;192.73;49.30;;;;;;;;;;4999065;28;20195;-42
2024/01/19 06:29:46;;;;;;;163.25;46.35;;;;;;;;;;4998894;28;20195;-43
2024/01/19 06:32:13;;;;;;;191.77;49.90;;;;;;;;;;4998454;28;20216;-41
2024/01/19 06:34:41;;;;;;;190.40;48.97;;;;;;;;;;4998862;28;20400;-42
2024/01/19 06:37:07;;;;;;;192.32;49.38;;;;;;;;;;4998247;28;20716;-43
2024/01/19 06:39:33;;;;;;;162.70;45.72;;;;;;;;;;4998663;28;20181;-43
2024/01/19 06:41:59;;;;;;;190.95;49.10;;;;;;;;;;4998477;28;20465;-42
2024/01/19 06:44:25;;;;;;;193.00;49.13;;;;;;;;;;4998583;28;20677;-42
2024/01/19 06:46:51;;;;;;;193.93;50.37;;;;;;;;;;4998171;28;20193;-42
2024/01/19 06:49:17;;;;;;;194.10;51.27;;;;;;;;;;4998128;28;20400;-42
2024/01/19 06:51:43;;;;;;;194.20;50.20;;;;;;;;;;4997814;28;20429;-42
2024/01/19 06:54:09;;;;;;;194.20;50.35;;;;;;;;;;4998045;28;20459;-42
2024/01/19 06:56:35;;;;;;;156.35;43.80;;;;;;;;;;4998183;28;20173;-42
2024/01/19 06:59:02;;;;;;;132.00;36.93;;;;;;;;;;4998008;28;20595;-43
2024/01/19 07:01:28;;;;;;;11.07;9.98;;;;;;;;;;4997880;28;20455;-42
2024/01/19 07:03:54;;;;;;;25.52;23.38;;;;;;;;;;4997856;28;20172;-42
2024/01/19 07:06:20;;;;;;;17.03;15.63;;;;;;;;;;4998014;28;20169;-43
2024/01/19 07:08:46;;;;;;;42.75;26.20;;;;;;;;;;4997932;28;20396;-42
2024/01/19 07:11:12;;;;;;;121.47;45.37;;;;;;;;;;4997822;28;20185;-43
2024/01/19 07:13:38;;;;;;;188.43;48.65;;;;;;;;;;4997885;28;20761;-42
2024/01/19 07:16:04;;;;;;;190.13;48.53;;;;;;;;;;4997849;28;20177;-42
2024/01/19 07:18:30;;;;;;;193.00;50.92;;;;;;;;;;4997828;28;20499;-42
2024/01/19 07:20:56;;;;;;;193.93;50.83;;;;;;;;;;4997777;28;20693;-43
2024/01/19 07:23:22;;;;;;;191.53;51.27;;;;;;;;;;4997956;28;20748;-42
2024/01/19 07:25:48;;;;;;;188.27;48.20;;;;;;;;;;4997815;28;20435;-42
2024/01/19 07:28:14;;;;;;;52.67;23.23;;;;;;;;;;4997889;28;20470;-42
2024/01/19 07:30:40;;;;;;;181.60;48.87;;;;;;;;;;4997687;28;20400;-42
2024/01/19 07:33:06;;;;;;;62.88;29.55;;;;;;;;;;4997736;28;20407;-43
2024/01/19 07:35:31;;;;;;;182.73;46.90;;;;;;;;;;4994340;28;20543;-42
2024/01/19 07:37:57;;;;;;;189.93;50.27;;;;;;;;;;4994347;28;20784;-43
2024/01/19 07:40:23;;;;;;;194.17;52.40;;;;;;;;;;4994443;28;20744;-43
2024/01/19 07:42:49;;;;;;;190.43;49.28;;;;;;;;;;4994938;28;20807;-42
2024/01/19 07:45:15;;;;;;;189.30;49.13;;;;;;;;;;4995073;28;20187;-42
2024/01/19 07:47:41;;;;;;;192.07;50.45;;;;;;;;;;4994912;28;20456;-41
2024/01/19 07:50:10;;;;;;;134.10;39.83;;;;;;;;;;4994821;28;20256;-43
2024/01/19 07:52:36;;;;;;;30.00;13.45;;;;;;;;;;4994863;28;20783;-42
2024/01/19 07:55:02;;;;;;;179.13;47.17;;;;;;;;;;4994931;28;20161;-42
2024/01/19 07:57:28;;;;;;;190.00;49.25;;;;;;;;;;4994860;28;20756;-42
2024/01/19 07:59:54;;;;;;;191.27;49.97;;;;;;;;;;4994631;28;20181;-42
2024/01/19 08:02:21;;;;;;;178.53;47.73;;;;;;;;;;4994561;28;20428;-42
2024/01/19 08:04:47;;;;;;;189.40;48.60;;;;;;;;;;4994718;28;20404;-43
2024/01/19 08:07:13;;;;;;;190.07;48.27;;;;;;;;;;4994719;28;20212;-42
2024/01/19 08:09:39;;;;;;;191.48;49.50;;;;;;;;;;4994735;28;20455;-42
2024/01/19 08:12:06;;;;;;;190.63;49.20;;;;;;;;;;4994302;28;20196;-43
2024/01/19 08:14:32;;;;;;;46.45;18.90;;;;;;;;;;4994578;28;20397;-42
2024/01/19 08:16:58;;;;;;;189.32;49.35;;;;;;;;;;4994665;28;20177;-42
2024/01/19 08:19:24;;;;;;;173.73;46.93;;;;;;;;;;4994514;28;20664;-42
2024/01/19 08:21:49;;;;;;;113.20;33.10;;;;;;;;;;4994191;28;20421;-42
2024/01/19 08:24:15;;;;;;;184.40;48.90;;;;;;;;;;4994420;28;20915;-43
2024/01/19 08:26:41;;;;;;;191.57;48.97;;;;;;;;;;4994169;28;20593;-42
2024/01/19 08:29:07;;;;;;;192.17;50.07;;;;;;;;;;4994539;28;20396;-42
2024/01/19 08:31:33;;;;;;;193.27;49.88;;;;;;;;;;4994020;28;20431;-42
2024/01/19 08:33:59;;;;;;;72.75;27.60;;;;;;;;;;4994169;28;20174;-42
2024/01/19 08:36:25;;;;;;;191.70;50.87;;;;;;;;;;4994056;28;20184;-43
2024/01/19 08:38:51;;;;;;;184.00;47.97;;;;;;;;;;4993603;28;20409;-42
2024/01/19 08:41:17;;;;;;;189.93;50.08;;;;;;;;;;4993910;28;20630;-42
2024/01/19 08:43:43;;;;;;;190.85;48.65;;;;;;;;;;4994093;28;20675;-42
2024/01/19 08:46:09;;;;;;;65.77;22.67;;;;;;;;;;4993554;28;20165;-42
2024/01/19 08:48:35;;;;;;;191.83;50.27;;;;;;;;;;4993863;28;20432;-42
2024/01/19 08:51:02;;;;;;;190.07;50.10;;;;;;;;;;4993685;28;20758;-42
2024/01/19 08:53:28;;;;;;;134.57;39.00;;;;;;;;;;4993663;28;20400;-41
2024/01/19 08:55:54;;;;;;;153.30;42.53;;;;;;;;;;4994129;28;20172;-42
2024/01/19 08:58:21;;;;;;;189.85;49.65;;;;;;;;;;4993976;28;20173;-42
2024/01/19 09:00:47;;;;;;;194.40;50.33;;;;;;;;;;4993796;28;20239;-42
2024/01/19 09:03:13;;;;;;;197.77;51.63;;;;;;;;;;4992412;28;20683;-42
2024/01/19 09:05:39;;;;;;;196.70;50.67;;;;;;;;;;4988087;28;20205;-43
2024/01/19 09:08:05;;;;;;;200.32;54.15;;;;;;;;;;4990623;28;20825;-41
2024/01/19 09:10:31;;;;;;;191.40;53.55;;;;;;;;;;4993060;28;20177;-42
2024/01/19 09:12:57;;;;;;;196.95;51.60;;;;;;;;;;4993364;28;20651;-42
2024/01/19 09:15:22;;;;;;;171.90;53.63;;;;;;;;;;4993936;28;20177;-42
2024/01/19 09:17:48;;;;;;;129.30;40.33;;;;;;;;;;4993070;28;20460;-42
2024/01/19 09:20:14;;;;;;;199.40;56.67;;;;;;;;;;4993084;28;20415;-43
2024/01/19 09:22:41;;;;;;;25.35;23.30;;;;;;;;;;4992368;28;20549;-42
2024/01/19 09:25:07;;;;;;;19.88;18.48;;;;;;;;;;4992979;28;20195;-41
2024/01/19 09:27:33;;;;;;;193.18;52.60;;;;;;;;;;4993111;28;20275;-41
2024/01/19 09:29:59;;;;;;;196.63;52.70;;;;;;;;;;4993301;28;20516;-41
2024/01/19 09:32:25;;;;;;;197.85;53.10;;;;;;;;;;4993426;28;20193;-42
2024/01/19 09:34:51;;;;;;;183.60;50.30;;;;;;;;;;4993614;28;20177;-42
2024/01/19 09:37:17;;;;;;;200.68;53.65;;;;;;;;;;4993364;28;20400;-42
2024/01/19 09:39:42;;;;;;;195.87;52.80;;;;;;;;;;4993142;28;20223;-42
2024/01/19 09:42:19;;;;;;;200.97;54.70;;;;;;;;;;4992019;28;20424;-42
2024/01/19 09:44:50;;;;;;;190.05;53.55;;;;;;;;;;4991982;28;20463;-42
2024/01/19 09:47:17;;;;;;;195.27;52.42;;;;;;;;;;4993541;28;20201;-43
2024/01/19 09:49:46;;;;;;;149.63;45.42;;;;;;;;;;4991763;28;20243;-42
2024/01/19 09:52:24;;;;;;;26.45;21.42;;;;;;;;;;4992779;28;20626;-42
2024/01/19 09:54:50;;;;;;;118.88;40.10;;;;;;;;;;4993241;28;20157;-42
2024/01/19 09:57:16;;;;;;;27.77;25.30;;;;;;;;;;4992863;28;20188;-42
2024/01/19 09:59:43;;;;;;;186.85;53.85;;;;;;;;;;4993231;28;20419;-42
2024/01/19 10:02:10;;;;;;;65.47;30.02;;;;;;;;;;4992847;28;20197;-42
2024/01/19 10:04:37;;;;;;;101.38;39.25;;;;;;;;;;4993054;28;20250;-43
2024/01/19 10:07:03;;;;;;;147.05;48.63;;;;;;;;;;4993020;28;20189;-43
2024/01/19 10:09:29;;;;;;;114.60;42.85;;;;;;;;;;4993148;28;20169;-42
2024/01/19 10:11:55;;;;;;;50.85;45.92;;;;;;;;;;4992929;28;20236;-42
2024/01/19 10:14:23;;;;;;;199.35;56.05;;;;;;;;;;4992781;28;20193;-43
2024/01/19 10:16:49;;;;;;;184.05;53.25;;;;;;;;;;4992878;28;20637;-42
2024/01/19 10:19:16;;;;;;;135.05;42.45;;;;;;;;;;4992851;28;20180;-43
2024/01/19 10:21:42;;;;;;;125.38;41.88;;;;;;;;;;4993621;28;20188;-42
2024/01/19 10:24:16;;;;;;;140.57;44.42;;;;;;;;;;4992330;28;20284;-42
2024/01/19 10:26:42;;;;;;;199.85;56.88;;;;;;;;;;4992306;28;20192;-42
2024/01/19 10:29:09;;;;;;;17.02;15.57;;;;;;;;;;4992431;28;20711;-42
2024/01/19 10:31:35;;;;;;;193.43;53.38;;;;;;;;;;4992072;28;20194;-42
2024/01/19 10:34:01;;;;;;;197.87;53.90;;;;;;;;;;4992203;28;20182;-43
2024/01/19 10:36:27;;;;;;;146.13;44.30;;;;;;;;;;4992190;28;20395;-42
2024/01/19 10:38:53;;;;;;;185.68;53.97;;;;;;;;;;4992290;28;20396;-43
2024/01/19 10:41:26;;;;;;;183.23;51.00;;;;;;;;;;4992022;28;20192;-42
2024/01/19 10:43:52;;;;;;;201.38;55.95;;;;;;;;;;4992079;28;20182;-43
2024/01/19 10:46:21;;;;;;;194.85;54.78;;;;;;;;;;4992153;28;20166;-42
2024/01/19 10:48:49;;;;;;;203.63;56.15;;;;;;;;;;4992028;28;20196;-42
2024/01/19 10:51:16;;;;;;;202.35;57.00;;;;;;;;;;4991883;28;20684;-42
2024/01/19 10:53:42;;;;;;;216.55;65.45;;;;;;;;;;4991174;28;20645;-42
2024/01/19 10:56:08;;;;;;;203.30;56.90;;;;;;;;;;4992083;28;20173;-42
2024/01/19 10:58:34;;;;;;;201.20;55.40;;;;;;;;;;4992107;28;20197;-43
2024/01/19 11:01:14;;;;;;;186.93;52.00;;;;;;;;;;4991805;28;20189;-42
2024/01/19 11:03:41;;;;;;;62.42;27.30;;;;;;;;;;4991928;28;20462;-43
2024/01/19 11:06:07;;;;;;;125.30;44.67;;;;;;;;;;4992097;28;20536;-42
2024/01/19 11:08:33;;;;;;;198.20;57.10;;;;;;;;;;4992167;28;20193;-42
2024/01/19 11:11:00;;;;;;;84.80;32.53;;;;;;;;;;4995472;28;20418;-42
2024/01/19 11:13:27;;;;;;;200.30;57.63;;;;;;;;;;4995685;28;20629;-42
2024/01/19 11:15:55;;;;;;;205.55;61.38;;;;;;;;;;4995405;28;20552;-42
2024/01/19 11:18:21;;;;;;;208.90;63.38;;;;;;;;;;4995724;28;20249;-43
2024/01/19 11:20:48;;;;;;;208.15;62.35;;;;;;;;;;4995249;28;20243;-42
2024/01/19 11:23:14;;;;;;;206.07;60.33;;;;;;;;;;4995467;28;20570;-42
2024/01/19 11:25:43;;;;;;;204.60;60.65;;;;;;;;;;4995412;28;20180;-42
2024/01/19 11:28:17;;;;;;;207.15;59.60;;;;;;;;;;4990241;28;20203;-42
2024/01/19 11:30:46;;;;;;;88.90;40.53;;;;;;;;;;4994869;28;20227;-43
2024/01/19 11:33:15;;;;;;;209.45;64.45;;;;;;;;;;4995081;28;20374;-42
2024/01/19 11:35:41;;;;;;;162.10;55.22;;;;;;;;;;4995174;28;20192;-42
2024/01/19 11:38:07;;;;;;;189.73;60.15;;;;;;;;;;4994982;28;20169;-42
2024/01/19 11:40:35;;;;;;;206.63;64.43;;;;;;;;;;4994755;28;20165;-42
2024/01/19 11:43:03;;;;;;;213.68;66.30;;;;;;;;;;4994613;28;20176;-42
2024/01/19 11:45:29;;;;;;;70.82;44.35;;;;;;;;;;4995098;28;20223;-41
2024/01/19 11:47:55;;;;;;;35.37;31.57;;;;;;;;;;4993127;28;20200;-42
2024/01/19 11:50:40;;;;;;;194.57;65.35;;;;;;;;;;4993415;28;20863;-42
2024/01/19 11:53:06;;;;;;;209.13;65.25;;;;;;;;;;4995333;28;20646;-42
2024/01/19 11:55:32;;;;;;;202.57;61.37;;;;;;;;;;4994819;28;20181;-42
2024/01/19 11:58:18;;;;;;;214.20;67.43;;;;;;;;;;4994611;28;20550;-43
2024/01/19 12:00:45;;;;;;;209.50;64.22;;;;;;;;;;4994363;28;20472;-42
2024/01/19 12:03:12;;;;;;;207.60;63.28;;;;;;;;;;4994702;28;20212;-42
2024/01/19 12:05:42;;;;;;;207.88;63.72;;;;;;;;;;4994609;28;20534;-41
2024/01/19 12:08:08;;;;;;;212.00;65.68;;;;;;;;;;4994537;28;20212;-42
2024/01/19 12:10:34;;;;;;;166.23;61.10;;;;;;;;;;4994332;28;20169;-42
2024/01/19 12:13:00;;;;;;;146.20;59.23;;;;;;;;;;4994527;28;20404;-42
2024/01/19 12:15:26;;;;;;;144.27;50.10;;;;;;;;;;4994751;28;20392;-42
2024/01/19 12:17:52;;;;;;;207.23;65.10;;;;;;;;;;4994430;28;20404;-42
2024/01/19 12:20:18;;;;;;;213.60;68.43;;;;;;;;;;4993546;28;20408;-42
2024/01/19 12:22:45;;;;;;;47.55;37.20;;;;;;;;;;4994134;28;20428;-42
2024/01/19 12:25:12;;;;;;;165.85;54.95;;;;;;;;;;4994419;28;20659;-42
2024/01/19 12:27:38;;;;;;;186.25;59.58;;;;;;;;;;4994204;28;20200;-43
2024/01/19 12:30:14;;;;;;;140.57;51.13;;;;;;;;;;4994185;28;20292;-43
2024/01/19 12:32:40;;;;;;;119.57;45.22;;;;;;;;;;4994039;28;20849;-42
2024/01/19 12:35:07;;;;;;;163.93;56.40;;;;;;;;;;4994022;28;20165;-42
2024/01/19 12:37:33;;;;;;;205.00;63.05;;;;;;;;;;4993994;28;20169;-42
2024/01/19 12:40:15;;;;;;;204.47;63.53;;;;;;;;;;4994061;28;20184;-42
2024/01/19 12:42:41;;;;;;;206.18;63.22;;;;;;;;;;4993793;28;20438;-42
2024/01/19 12:45:08;;;;;;;205.48;63.47;;;;;;;;;;4994173;28;20590;-42
2024/01/19 12:47:34;;;;;;;141.57;55.25;;;;;;;;;;4993663;28;20196;-42
2024/01/19 12:50:00;;;;;;;204.77;61.22;;;;;;;;;;4993840;28;20252;-43
2024/01/19 12:52:26;;;;;;;108.73;48.67;;;;;;;;;;4993522;28;20264;-43
2024/01/19 12:54:52;;;;;;;63.27;36.53;;;;;;;;;;4993824;28;20908;-42
2024/01/19 12:57:18;;;;;;;150.73;50.05;;;;;;;;;;4993621;28;20419;-42
2024/01/19 12:59:45;;;;;;;36.95;25.70;;;;;;;;;;4992619;28;20177;-42
2024/01/19 13:02:11;;;;;;;117.63;48.17;;;;;;;;;;4993194;28;20200;-42
2024/01/19 13:04:37;;;;;;;115.97;40.92;;;;;;;;;;4993913;28;20177;-42
2024/01/19 13:07:04;;;;;;;17.88;16.55;;;;;;;;;;4993606;28;20200;-42
2024/01/19 13:09:30;;;;;;;186.07;56.40;;;;;;;;;;4993518;28;20180;-42
2024/01/19 13:12:09;;;;;;;186.57;55.40;;;;;;;;;;4993253;28;20204;-43
2024/01/19 13:14:35;;;;;;;203.70;61.60;;;;;;;;;;4989293;28;20504;-42
2024/01/19 13:17:03;;;;;;;181.25;58.72;;;;;;;;;;4993169;28;20649;-42
2024/01/19 13:19:30;;;;;;;187.98;59.85;;;;;;;;;;4993136;28;20224;-42
2024/01/19 13:21:56;;;;;;;203.75;60.63;;;;;;;;;;4992855;28;20199;-42
2024/01/19 13:24:24;;;;;;;201.48;63.22;;;;;;;;;;4993088;28;20177;-42
2024/01/19 13:27:02;;;;;;;201.55;60.60;;;;;;;;;;4993029;28;20192;-41
2024/01/19 13:29:28;;;;;;;199.45;59.40;;;;;;;;;;4993037;28;20164;-42
2024/01/19 13:31:54;;;;;;;202.00;61.97;;;;;;;;;;4992254;28;20714;-42
2024/01/19 13:34:26;;;;;;;201.68;60.83;;;;;;;;;;4991155;28;20173;-42
2024/01/19 13:36:52;;;;;;;203.40;63.63;;;;;;;;;;4993223;28;20323;-42
2024/01/19 13:39:18;;;;;;;201.07;60.30;;;;;;;;;;4992870;28;20263;-43
2024/01/19 13:41:44;;;;;;;198.17;60.23;;;;;;;;;;4992481;28;20193;-42
2024/01/19 13:44:10;;;;;;;202.77;62.42;;;;;;;;;;4991603;28;20436;-42
2024/01/19 13:46:36;;;;;;;202.73;62.55;;;;;;;;;;4992636;28;20177;-42
2024/01/19 13:49:02;;;;;;;199.60;60.27;;;;;;;;;;4992653;28;20169;-42
2024/01/19 13:51:28;;;;;;;198.77;59.03;;;;;;;;;;4993809;28;20420;-42
2024/01/19 13:53:54;;;;;;;200.52;59.83;;;;;;;;;;4992906;28;20228;-42
2024/01/19 13:56:20;;;;;;;200.93;63.27;;;;;;;;;;4992401;28;20172;-42
2024/01/19 13:58:46;;;;;;;204.97;64.37;;;;;;;;;;4991242;28;20408;-41
2024/01/19 14:01:12;;;;;;;200.37;62.20;;;;;;;;;;4990587;28;20520;-42
2024/01/19 14:03:38;;;;;;;178.77;56.75;;;;;;;;;;4991281;28;20403;-42
2024/01/19 14:06:05;;;;;;;200.77;59.70;;;;;;;;;;4992406;28;20176;-43